createdAt,value
2024-03-06T00:00:22.546Z,82.76
2024-03-06T00:02:52.282Z,82.71
2024-03-06T00:05:20.463Z,82.75
2024-03-06T00:07:48.559Z,81.91
2024-03-06T00:10:17.104Z,82.49
2024-03-06T00:12:45.203Z,83.38
2024-03-06T00:15:13.622Z,83.61
2024-03-06T00:17:42.014Z,83.40
2024-03-06T00:20:12.848Z,83.15
2024-03-06T00:22:41.036Z,82.26
2024-03-06T00:25:10.123Z,82.15
2024-03-06T00:27:38.416Z,82.16
2024-03-06T00:30:08.020Z,81.50
2024-03-06T00:32:36.107Z,80.96
2024-03-06T00:35:05.200Z,80.95
2024-03-06T00:37:34.659Z,80.60
2024-03-06T00:40:02.702Z,80.49
2024-03-06T00:42:31.147Z,80.03
2024-03-06T00:44:59.337Z,79.86
2024-03-06T00:47:28.002Z,80.23
2024-03-06T00:49:56.393Z,80.55
2024-03-06T00:52:24.454Z,80.91
2024-03-06T00:54:53.971Z,81.60
2024-03-06T00:57:22.160Z,82.15
2024-03-06T00:59:50.267Z,81.32
2024-03-06T01:02:18.647Z,80.78
2024-03-06T01:04:46.932Z,80.53
2024-03-06T01:07:15.110Z,80.92
2024-03-06T01:09:43.626Z,81.27
2024-03-06T01:12:13.126Z,80.92
2024-03-06T01:14:41.339Z,80.89
2024-03-06T01:17:09.492Z,81.22
2024-03-06T01:19:37.695Z,80.89
2024-03-06T01:22:05.761Z,80.65
2024-03-06T01:24:33.885Z,81.54
2024-03-06T01:27:03.942Z,81.42
2024-03-06T01:29:33.959Z,81.37
2024-03-06T01:32:02.196Z,81.26
2024-03-06T01:34:30.762Z,81.09
2024-03-06T01:36:59.012Z,81.50
2024-03-06T01:39:27.277Z,81.59
2024-03-06T01:41:55.755Z,83.23
2024-03-06T01:44:23.876Z,84.03
2024-03-06T01:46:53.396Z,83.84
2024-03-06T01:49:28.552Z,84.40
2024-03-06T01:52:01.982Z,84.32
2024-03-06T01:54:30.350Z,84.33
2024-03-06T01:57:01.195Z,84.80
2024-03-06T01:59:36.099Z,85.14
2024-03-06T02:02:26.426Z,84.65
2024-03-06T02:04:56.139Z,84.32
2024-03-06T02:07:30.501Z,83.94
2024-03-06T02:09:59.076Z,84.82
2024-03-06T02:12:28.386Z,85.20
2024-03-06T02:14:56.412Z,84.63
2024-03-06T02:17:28.265Z,84.47
2024-03-06T02:19:59.402Z,85.07
2024-03-06T02:22:28.946Z,85.17
2024-03-06T02:24:57.190Z,84.99
2024-03-06T02:27:25.352Z,84.74
2024-03-06T02:29:53.536Z,84.91
2024-03-06T02:32:21.678Z,84.87
2024-03-06T02:34:50.468Z,84.54
2024-03-06T02:37:18.980Z,84.75
2024-03-06T02:39:48.783Z,84.72
2024-03-06T02:42:18.130Z,84.42
2024-03-06T02:44:46.518Z,84.20
2024-03-06T02:47:14.803Z,84.54
2024-03-06T02:49:42.928Z,84.76
2024-03-06T02:52:11.082Z,85.45
2024-03-06T02:54:39.121Z,85.64
2024-03-06T02:57:08.602Z,86.50
2024-03-06T02:59:36.683Z,86.74
2024-03-06T03:02:04.926Z,86.87
2024-03-06T03:04:33.495Z,86.92
2024-03-06T03:07:01.664Z,86.57
2024-03-06T03:09:30.900Z,86.05
2024-03-06T03:12:00.336Z,86.03
2024-03-06T03:14:29.689Z,85.72
2024-03-06T03:16:57.822Z,85.48
2024-03-06T03:19:25.894Z,84.90
2024-03-06T03:21:54.221Z,85.10
2024-03-06T03:24:23.052Z,84.85
2024-03-06T03:26:53.397Z,84.52
2024-03-06T03:29:22.052Z,83.30
2024-03-06T03:31:51.593Z,83.12
2024-03-06T03:34:22.126Z,83.42
2024-03-06T03:36:50.270Z,83.52
2024-03-06T03:39:18.690Z,83.26
2024-03-06T03:41:47.774Z,82.96
2024-03-06T03:44:16.251Z,83.70
2024-03-06T03:46:45.225Z,84.16
2024-03-06T03:49:14.949Z,84.27
2024-03-06T03:51:43.330Z,84.15
2024-03-06T03:54:11.488Z,83.70
2024-03-06T03:56:40.004Z,83.41
2024-03-06T03:59:08.604Z,83.44
2024-03-06T04:01:36.863Z,83.57
2024-03-06T04:04:05.393Z,83.63
2024-03-06T04:06:34.941Z,83.52
2024-03-06T04:09:03.537Z,83.39
2024-03-06T04:11:31.950Z,82.94
2024-03-06T04:14:00.068Z,83.18
2024-03-06T04:16:31.058Z,83.12
2024-03-06T04:18:59.860Z,83.10
2024-03-06T04:21:28.061Z,83.27
2024-03-06T04:23:57.476Z,83.34
2024-03-06T04:26:25.672Z,83.22
2024-03-06T04:28:55.129Z,83.13
2024-03-06T04:31:23.322Z,83.76
2024-03-06T04:33:51.402Z,84.64
2024-03-06T04:36:19.630Z,83.83
2024-03-06T04:38:47.789Z,83.81
2024-03-06T04:41:17.316Z,83.69
2024-03-06T04:43:45.434Z,83.21
2024-03-06T04:46:15.896Z,83.24
2024-03-06T04:48:44.014Z,82.87
2024-03-06T04:51:12.178Z,82.67
2024-03-06T04:53:40.367Z,82.90
2024-03-06T04:56:11.898Z,83.13
2024-03-06T04:58:42.536Z,82.89
2024-03-06T05:01:10.732Z,83.00
2024-03-06T05:59:12.954Z,79.76
2024-03-06T06:01:41.437Z,80.51
2024-03-06T06:04:11.380Z,80.99
2024-03-06T06:06:40.004Z,81.30
2024-03-06T06:09:13.917Z,81.06
2024-03-06T06:11:42.260Z,80.94
2024-03-06T06:14:10.375Z,80.61
2024-03-06T06:16:39.860Z,79.67
2024-03-06T06:19:08.373Z,79.85
2024-03-06T06:21:38.349Z,79.31
2024-03-06T06:24:07.863Z,78.77
2024-03-06T06:26:36.233Z,79.64
2024-03-06T06:29:04.780Z,79.52
2024-03-06T06:31:33.167Z,78.21
2024-03-06T06:34:01.450Z,77.39
2024-03-06T06:36:30.883Z,76.27
2024-03-06T06:39:03.112Z,75.07
2024-03-06T06:41:33.655Z,74.32
2024-03-06T06:44:04.067Z,74.84
2024-03-06T06:46:33.541Z,75.17
2024-03-06T06:49:01.892Z,74.44
2024-03-06T06:51:30.086Z,75.14
2024-03-06T06:54:00.614Z,75.03
2024-03-06T06:56:30.547Z,75.15
2024-03-06T06:58:58.975Z,75.77
2024-03-06T07:01:28.811Z,76.28
2024-03-06T07:03:57.252Z,76.83
2024-03-06T07:06:25.677Z,77.68
2024-03-06T07:08:53.889Z,77.09
2024-03-06T07:11:23.028Z,77.40
2024-03-06T07:13:52.800Z,76.93
2024-03-06T07:16:23.938Z,76.60
2024-03-06T07:18:52.112Z,76.95
2024-03-06T07:21:20.264Z,76.77
2024-03-06T07:23:48.604Z,76.37
2024-03-06T07:26:17.178Z,77.21
2024-03-06T07:28:45.328Z,78.90
2024-03-06T07:31:14.913Z,79.33
2024-03-06T07:33:43.176Z,79.72
2024-03-06T07:36:11.729Z,79.53
2024-03-06T07:38:39.930Z,80.23
2024-03-06T07:41:08.781Z,80.48
2024-03-06T07:43:37.014Z,79.99
2024-03-06T07:46:10.967Z,79.36
2024-03-06T07:48:40.645Z,78.94
2024-03-06T07:51:09.958Z,78.48
2024-03-06T07:53:38.528Z,78.09
2024-03-06T07:56:07.322Z,78.08
2024-03-06T07:58:35.695Z,76.43
2024-03-06T08:01:08.642Z,76.23
2024-03-06T08:03:36.954Z,76.43
2024-03-06T08:06:07.637Z,76.04
2024-03-06T08:08:36.620Z,75.52
2024-03-06T08:11:05.384Z,75.59
2024-03-06T08:13:33.872Z,75.30
2024-03-06T08:16:02.280Z,74.96
2024-03-06T08:18:30.503Z,75.36
2024-03-06T08:20:59.136Z,74.33
2024-03-06T08:23:31.924Z,74.34
2024-03-06T08:26:02.714Z,72.90
2024-03-06T08:28:31.013Z,73.60
2024-03-06T08:30:59.173Z,73.31
2024-03-06T08:33:27.657Z,72.15
2024-03-06T08:35:56.157Z,72.12
2024-03-06T08:38:24.943Z,71.73
2024-03-06T08:40:55.323Z,71.49
2024-03-06T08:43:23.719Z,71.11
2024-03-06T08:45:52.028Z,70.75
2024-03-06T08:48:20.623Z,69.99
2024-03-06T08:50:49.003Z,69.31
2024-03-06T08:53:17.353Z,68.63
2024-03-06T08:55:45.691Z,68.52
2024-03-06T08:58:16.042Z,68.63
2024-03-06T09:00:44.498Z,68.51
2024-03-06T09:03:12.911Z,68.61
2024-03-06T09:05:41.257Z,68.87
2024-03-06T09:08:10.657Z,68.91
2024-03-06T09:10:39.430Z,68.01
2024-03-06T09:13:07.501Z,67.88
2024-03-06T09:15:36.878Z,67.44
2024-03-06T09:18:05.833Z,66.95
2024-03-06T09:20:34.189Z,66.75
2024-03-06T09:23:02.556Z,65.53
2024-03-06T09:25:31.209Z,65.22
2024-03-06T09:28:01.171Z,64.59
2024-03-06T09:30:30.489Z,64.56
2024-03-06T09:33:00.202Z,64.34
2024-03-06T09:35:28.438Z,64.30
2024-03-06T09:37:59.123Z,62.93
2024-03-06T09:40:27.486Z,62.20
2024-03-06T09:42:55.977Z,62.54
2024-03-06T09:45:24.839Z,62.50
2024-03-06T09:47:54.188Z,62.06
2024-03-06T09:50:28.441Z,61.97
2024-03-06T09:52:58.289Z,60.90
2024-03-06T09:55:28.805Z,61.79
2024-03-06T09:57:57.731Z,60.67
2024-03-06T10:00:27.489Z,60.35
2024-03-06T10:03:00.502Z,59.49
2024-03-06T10:05:31.863Z,59.63
2024-03-06T10:08:01.497Z,59.53
2024-03-06T10:10:29.929Z,59.79
2024-03-06T10:13:03.678Z,59.04
2024-03-06T10:15:32.332Z,58.12
2024-03-06T10:18:13.352Z,57.42
2024-03-06T10:20:46.290Z,56.47
2024-03-06T10:23:19.633Z,56.08
2024-03-06T10:25:54.581Z,54.98
2024-03-06T10:28:26.899Z,54.55
2024-03-06T10:31:06.054Z,54.24
2024-03-06T10:33:34.851Z,54.03
2024-03-06T10:36:05.460Z,54.23
2024-03-06T10:38:39.060Z,54.40
2024-03-06T10:41:15.648Z,53.13
2024-03-06T10:43:46.905Z,53.19
2024-03-06T10:46:16.651Z,52.58
2024-03-06T10:48:46.067Z,51.37
2024-03-06T10:51:17.117Z,51.35
2024-03-06T10:53:47.463Z,51.19
2024-03-06T10:56:16.250Z,51.40
2024-03-06T10:58:45.144Z,51.56
2024-03-06T11:01:13.949Z,51.05
2024-03-06T11:03:43.036Z,50.59
2024-03-06T11:06:11.373Z,50.21
2024-03-06T11:08:41.345Z,49.71
2024-03-06T11:11:23.352Z,49.80
2024-03-06T11:13:51.734Z,48.59
2024-03-06T11:16:19.825Z,47.79
2024-03-06T11:18:49.373Z,48.17
2024-03-06T11:21:34.364Z,48.09
2024-03-06T11:24:23.473Z,47.46
2024-03-06T11:26:57.722Z,46.52
2024-03-06T11:29:28.224Z,46.36
2024-03-06T11:32:11.705Z,46.17
2024-03-06T11:34:40.770Z,45.68
2024-03-06T11:37:12.980Z,44.02
2024-03-06T11:39:45.943Z,44.36
2024-03-06T11:42:16.350Z,44.28
2024-03-06T11:44:57.857Z,43.77
2024-03-06T11:47:26.993Z,43.23
2024-03-06T11:49:56.761Z,43.97
2024-03-06T11:52:25.000Z,43.88
2024-03-06T11:54:55.672Z,43.30
2024-03-06T11:57:28.206Z,43.04
2024-03-06T11:59:56.879Z,43.17
2024-03-06T12:02:25.391Z,43.16
2024-03-06T12:04:55.025Z,43.39
2024-03-06T12:07:23.574Z,43.12
2024-03-06T12:09:52.529Z,43.04
2024-03-06T12:12:22.339Z,42.77
2024-03-06T12:14:59.382Z,42.51
2024-03-06T12:17:27.908Z,42.21
2024-03-06T12:19:58.228Z,42.45
2024-03-06T12:22:28.184Z,42.11
2024-03-06T12:25:01.212Z,42.60
2024-03-06T12:27:31.001Z,42.19
2024-03-06T12:29:59.301Z,42.39
2024-03-06T12:32:31.311Z,42.52
2024-03-06T12:35:01.837Z,42.01
2024-03-06T12:37:35.165Z,41.90
2024-03-06T12:40:05.841Z,41.92
2024-03-06T12:42:35.594Z,41.91
2024-03-06T12:45:04.773Z,42.81
2024-03-06T12:47:33.359Z,48.80
2024-03-06T12:50:01.791Z,50.32
2024-03-06T12:52:29.959Z,51.09
2024-03-06T12:54:58.203Z,51.36
2024-03-06T12:57:26.882Z,52.26
2024-03-06T12:59:56.558Z,52.66
2024-03-06T13:02:24.999Z,53.01
2024-03-06T13:04:53.550Z,52.67
2024-03-06T13:07:22.110Z,52.10
2024-03-06T13:09:50.422Z,52.20
2024-03-06T13:12:18.641Z,51.69
2024-03-06T13:14:46.952Z,52.62
2024-03-06T13:17:17.385Z,53.31
2024-03-06T13:19:45.613Z,52.41
2024-03-06T13:22:14.056Z,51.27
2024-03-06T13:24:44.180Z,50.84
2024-03-06T13:27:13.921Z,50.63
2024-03-06T13:29:42.632Z,50.95
2024-03-06T13:32:11.813Z,49.49
2024-03-06T13:34:41.566Z,50.91
2024-03-06T13:37:11.742Z,50.21
2024-03-06T13:39:41.260Z,48.78
2024-03-06T13:42:10.630Z,49.05
2024-03-06T13:44:39.024Z,48.78
2024-03-06T13:47:09.246Z,49.21
2024-03-06T13:49:39.639Z,49.46
2024-03-06T13:52:11.489Z,49.20
2024-03-06T13:54:41.469Z,48.91
2024-03-06T13:57:10.312Z,49.08
2024-03-06T13:59:39.148Z,48.48
2024-03-06T14:02:08.764Z,48.47
2024-03-06T14:04:37.444Z,47.81
2024-03-06T14:07:06.662Z,47.98
2024-03-06T14:09:36.330Z,48.49
2024-03-06T14:12:04.822Z,48.78
2024-03-06T14:14:33.020Z,48.40
2024-03-06T14:17:01.489Z,48.65
2024-03-06T14:19:30.083Z,48.77
2024-03-06T14:22:02.056Z,49.00
2024-03-06T14:24:32.653Z,49.79
2024-03-06T14:27:02.230Z,49.99
2024-03-06T14:29:30.698Z,49.30
2024-03-06T14:31:59.476Z,49.56
2024-03-06T14:34:27.871Z,50.58
2024-03-06T14:36:56.373Z,51.01
2024-03-06T14:39:26.777Z,51.16
2024-03-06T14:41:55.358Z,50.63
2024-03-06T14:44:25.045Z,51.06
2024-03-06T14:46:53.670Z,50.97
2024-03-06T14:49:21.939Z,50.30
2024-03-06T14:51:50.155Z,50.07
2024-03-06T14:54:18.462Z,49.70
2024-03-06T14:56:46.901Z,49.43
2024-03-06T14:59:15.350Z,49.95
2024-03-06T15:01:45.600Z,50.35
2024-03-06T15:04:14.032Z,50.09
2024-03-06T15:06:42.662Z,49.54
2024-03-06T15:09:13.050Z,50.82
2024-03-06T15:11:41.843Z,51.74
2024-03-06T15:14:10.359Z,53.31
2024-03-06T15:16:39.869Z,55.04
2024-03-06T15:19:09.671Z,56.29
2024-03-06T15:21:37.908Z,57.66
2024-03-06T15:24:06.978Z,58.20
2024-03-06T15:26:36.924Z,58.78
2024-03-06T15:29:07.893Z,59.39
2024-03-06T15:31:36.162Z,59.81
2024-03-06T15:34:04.244Z,59.88
2024-03-06T15:36:33.776Z,60.44
2024-03-06T15:39:02.131Z,60.89
2024-03-06T15:41:30.377Z,61.84
2024-03-06T15:43:59.180Z,61.89
2024-03-06T15:46:27.868Z,63.62
2024-03-06T15:48:56.400Z,63.70
2024-03-06T15:51:24.665Z,64.67
2024-03-06T15:53:54.926Z,66.78
2024-03-06T15:56:23.103Z,66.90
2024-03-06T15:58:51.300Z,66.28
2024-03-06T16:01:19.656Z,68.24
2024-03-06T16:03:47.852Z,69.12
2024-03-06T16:06:19.322Z,69.71
2024-03-06T16:08:48.975Z,70.84
2024-03-06T16:11:18.765Z,68.14
2024-03-06T16:13:47.138Z,66.83
2024-03-06T16:16:17.654Z,69.87
2024-03-06T16:18:46.284Z,69.01
2024-03-06T16:21:14.338Z,69.06
2024-03-06T16:23:42.835Z,71.08
2024-03-06T16:26:11.173Z,71.48
2024-03-06T16:28:41.070Z,71.31
2024-03-06T16:31:09.648Z,72.36
2024-03-06T16:33:38.220Z,72.83
2024-03-06T16:36:09.789Z,72.97
2024-03-06T16:38:38.481Z,73.14
2024-03-06T16:41:10.325Z,73.21
2024-03-06T16:43:38.549Z,73.98
2024-03-06T16:46:08.226Z,73.15
2024-03-06T16:48:36.587Z,73.96
2024-03-06T16:51:05.359Z,73.82
2024-03-06T16:53:33.790Z,72.80
2024-03-06T16:56:02.162Z,71.87
2024-03-06T16:58:30.577Z,71.29
2024-03-06T17:00:58.874Z,71.34
2024-03-06T17:03:28.657Z,70.84
2024-03-06T17:05:56.941Z,71.11
2024-03-06T17:08:26.259Z,71.00
2024-03-06T17:10:54.567Z,70.53
2024-03-06T17:13:23.484Z,70.89
2024-03-06T17:15:52.366Z,72.65
2024-03-06T17:18:24.186Z,70.84
2024-03-06T17:20:54.516Z,71.92
2024-03-06T17:23:23.749Z,74.04
2024-03-06T17:25:53.498Z,74.74
2024-03-06T17:28:21.884Z,75.16
2024-03-06T17:30:50.367Z,76.42
2024-03-06T17:33:19.372Z,76.21
2024-03-06T17:35:48.459Z,76.43
2024-03-06T17:38:18.623Z,75.41
2024-03-06T17:40:47.498Z,75.10
2024-03-06T17:43:16.253Z,75.56
2024-03-06T17:45:44.490Z,75.40
2024-03-06T17:48:13.494Z,75.49
2024-03-06T17:50:44.288Z,74.64
2024-03-06T17:53:13.574Z,74.19
2024-03-06T17:55:43.572Z,74.64
2024-03-06T17:58:11.794Z,74.60
2024-03-06T18:00:43.054Z,74.90
2024-03-06T18:03:16.711Z,76.17
2024-03-06T18:05:45.421Z,76.43
2024-03-06T18:08:13.800Z,77.11
2024-03-06T18:10:43.459Z,76.44
2024-03-06T18:13:11.731Z,76.61
2024-03-06T18:15:43.020Z,77.31
2024-03-06T18:18:11.464Z,77.24
2024-03-06T18:20:40.000Z,77.01
2024-03-06T18:23:08.347Z,76.98
2024-03-06T18:25:36.407Z,75.89
2024-03-06T18:28:06.389Z,76.34
2024-03-06T18:30:35.077Z,77.40
2024-03-06T18:33:03.712Z,77.05
2024-03-06T18:35:31.988Z,77.25
2024-03-06T18:38:02.711Z,76.97
2024-03-06T18:40:31.364Z,78.08
2024-03-06T18:43:00.249Z,77.65
2024-03-06T18:45:31.277Z,77.98
2024-03-06T18:48:01.711Z,77.90
2024-03-06T18:50:33.621Z,77.47
2024-03-06T18:53:06.585Z,77.23
2024-03-06T18:55:35.536Z,76.81
2024-03-06T18:58:04.763Z,76.75
2024-03-06T19:00:35.151Z,76.62
2024-03-06T19:03:03.496Z,77.71
2024-03-06T19:05:31.897Z,79.13
2024-03-06T19:08:00.633Z,80.17
2024-03-06T19:10:28.818Z,80.34
2024-03-06T19:12:57.274Z,80.38
2024-03-06T19:15:25.744Z,80.76
2024-03-06T19:17:55.877Z,80.97
2024-03-06T19:20:24.543Z,81.20
2024-03-06T19:22:52.610Z,81.57
2024-03-06T19:25:21.378Z,81.95
2024-03-06T19:27:49.621Z,82.09
2024-03-06T19:30:17.814Z,81.78
2024-03-06T19:32:54.702Z,81.91
2024-03-06T19:35:26.884Z,81.50
2024-03-06T19:37:55.440Z,80.87
2024-03-06T19:40:23.864Z,80.40
2024-03-06T19:42:52.181Z,80.27
2024-03-06T19:45:21.160Z,80.41
2024-03-06T19:47:49.621Z,80.66
2024-03-06T19:50:18.387Z,80.93
2024-03-06T19:52:50.925Z,80.59
2024-03-06T19:55:21.181Z,80.73
2024-03-06T19:57:49.568Z,81.09
2024-03-06T20:00:20.845Z,80.79
2024-03-06T20:02:49.219Z,81.19
2024-03-06T20:05:18.241Z,81.28
2024-03-06T20:07:48.005Z,81.25
2024-03-06T20:10:16.612Z,81.38
2024-03-06T20:12:44.866Z,81.12
2024-03-06T20:15:13.602Z,81.05
2024-03-06T20:17:42.284Z,81.18
2024-03-06T20:20:13.189Z,81.03
2024-03-06T20:22:41.842Z,81.18
2024-03-06T20:25:12.850Z,81.12
2024-03-06T20:27:42.075Z,81.00
2024-03-06T20:30:11.857Z,81.21
2024-03-06T20:32:40.277Z,81.33
2024-03-06T20:35:10.032Z,81.67
2024-03-06T20:37:38.477Z,81.64
2024-03-06T20:40:07.885Z,81.76
2024-03-06T20:42:37.363Z,82.07
2024-03-06T20:45:11.747Z,82.10
2024-03-06T20:47:41.928Z,81.87
2024-03-06T20:50:11.865Z,82.06
2024-03-06T20:52:42.075Z,82.05
2024-03-06T20:55:11.113Z,81.87
2024-03-06T20:57:40.550Z,81.86
2024-03-06T21:00:13.964Z,81.94
2024-03-06T21:02:42.545Z,81.54
2024-03-06T21:05:11.516Z,81.16
2024-03-06T21:07:42.222Z,80.77
2024-03-06T21:10:11.530Z,80.99
2024-03-06T21:12:40.996Z,80.45
2024-03-06T21:15:10.660Z,80.51
2024-03-06T21:17:38.812Z,80.68
2024-03-06T21:20:12.665Z,81.03
2024-03-06T21:22:41.779Z,81.15
2024-03-06T21:25:11.714Z,81.13
2024-03-06T21:27:42.030Z,81.30
2024-03-06T21:30:12.637Z,80.82
2024-03-06T21:32:41.457Z,81.19
2024-03-06T21:35:11.276Z,80.80
2024-03-06T21:37:39.723Z,81.03
2024-03-06T21:40:10.650Z,81.11
2024-03-06T21:42:38.961Z,81.29
2024-03-06T21:45:10.833Z,81.26
2024-03-06T21:47:39.471Z,81.34
2024-03-06T21:50:08.498Z,81.67
2024-03-06T21:52:36.960Z,81.76
2024-03-06T21:55:05.318Z,81.42
2024-03-06T21:57:33.510Z,81.32
2024-03-06T22:00:01.626Z,81.37
2024-03-06T22:02:31.463Z,81.71
2024-03-06T22:04:59.810Z,81.80
2024-03-06T22:07:27.873Z,82.47
2024-03-06T22:09:56.270Z,82.72
2024-03-06T22:12:25.999Z,82.98
2024-03-06T22:14:55.727Z,82.86
2024-03-06T22:17:24.438Z,83.10
2024-03-06T22:19:54.161Z,82.73
2024-03-06T22:22:24.366Z,82.84
2024-03-06T22:24:53.514Z,83.34
2024-03-06T22:27:21.683Z,83.56
2024-03-06T22:29:49.809Z,83.36
2024-03-06T22:32:18.057Z,83.71
2024-03-06T22:34:46.412Z,84.33
2024-03-06T22:37:16.058Z,84.28
2024-03-06T22:39:44.310Z,84.69
2024-03-06T22:42:12.787Z,84.58
2024-03-06T22:44:41.326Z,84.93
2024-03-06T22:47:09.738Z,84.73
2024-03-06T22:49:38.022Z,84.84
2024-03-06T22:52:06.919Z,85.06
2024-03-06T22:54:38.849Z,84.47
2024-03-06T22:57:07.476Z,84.27
2024-03-06T22:59:35.834Z,84.48
2024-03-06T23:02:04.354Z,84.52
2024-03-06T23:04:33.516Z,84.53
2024-03-06T23:07:01.767Z,85.00
2024-03-06T23:09:29.803Z,84.83
2024-03-06T23:11:59.284Z,85.40
2024-03-06T23:14:28.177Z,85.91
2024-03-06T23:16:56.515Z,85.76
2024-03-06T23:19:24.901Z,85.79
2024-03-06T23:21:52.957Z,85.68
2024-03-06T23:24:21.015Z,85.50
2024-03-06T23:26:49.182Z,85.73
2024-03-06T23:29:18.922Z,86.20
2024-03-06T23:31:47.120Z,86.77
2024-03-06T23:34:15.149Z,87.56
2024-03-06T23:36:43.303Z,86.76
2024-03-06T23:39:11.433Z,87.28
2024-03-06T23:41:39.715Z,87.43
2024-03-06T23:44:07.836Z,87.48
2024-03-06T23:46:37.385Z,87.76
2024-03-06T23:49:05.796Z,87.31
2024-03-06T23:51:34.637Z,87.22
2024-03-06T23:54:03.350Z,86.99
2024-03-06T23:56:32.774Z,87.12
2024-03-06T23:59:01.016Z,87.09
